Time,TemperatureF,DewpointF,PressureIn,WindDirection,WindDirectionDegrees,WindSpeedMPH,WindSpeedGustMPH,Humidity,HourlyPrecipIn,Conditions,Clouds,dailyrainin,SoftwareType,DateUTC
2013-06-22 00:02:00,72.3,63.9,29.91,East,90,6.4,10.4,75,0.00,RA,OVC,0.00,WeatherDisplay:10.37,2013-06-22 05:02:00,
2013-06-22 00:08:00,72.3,63.9,29.91,ESE,112,9.2,9.2,75,0.00,RA,OVC,0.00,WeatherDisplay:10.37,2013-06-22 05:08:00,
2013-06-22 00:12:00,72.3,64.3,29.91,ESE,112,9.9,9.9,76,0.00,,OVC,0.00,WeatherDisplay:10.37,2013-06-22 05:12:00,
2013-06-22 00:18:00,72.1,63.8,29.91,ESE,112,6.0,10.4,75,0.00,,OVC,0.00,WeatherDisplay:10.37,2013-06-22 05:18:00,
2013-06-22 00:23:00,72.1,63.8,29.91,ESE,112,10.0,10.0,75,0.00,,OVC,0.00,WeatherDisplay:10.37,2013-06-22 05:23:00,
2013-06-22 00:28:00,72.1,63.8,29.90,East,90,8.7,10.4,75,0.00,,OVC,0.00,WeatherDisplay:10.37,2013-06-22 05:28:00,
2013-06-22 00:33:00,72.1,63.8,29.89,ESE,112,9.4,10.4,75,0.00,,OVC,0.00,WeatherDisplay:10.37,2013-06-22 05:33:00,
2013-06-22 00:38:00,72.1,63.8,29.89,SE,135,7.8,9.2,75,0.00,,OVC,0.00,WeatherDisplay:10.37,2013-06-22 05:38:00,
2013-06-22 00:43:00,72.3,64.3,29.89,SE,135,8.3,13.8,76,0.00,,OVC,0.00,WeatherDisplay:10.37,2013-06-22 05:43:00,
2013-06-22 00:48:00,72.1,63.8,29.89,SE,135,11.8,11.8,75,0.00,,OVC,0.00,WeatherDisplay:10.37,2013-06-22 05:48:00,
2013-06-22 00:53:00,72.1,63.4,29.88,SE,135,10.0,11.5,74,0.00,,OVC,0.00,WeatherDisplay:10.37,2013-06-22 05:53:00,
2013-06-22 00:58:00,72.1,63.4,29.88,SE,135,10.2,11.5,74,0.00,,OVC,0.00,WeatherDisplay:10.37,2013-06-22 05:58:00,
2013-06-22 01:03:00,72.1,63.4,29.88,SE,135,11.4,12.7,74,0.00,,OVC,0.00,WeatherDisplay:10.37,2013-06-22 06:03:00,
2013-06-22 01:08:00,72.1,63.4,29.88,SE,135,8.7,10.4,74,0.00,,OVC,0.00,WeatherDisplay:10.37,2013-06-22 06:08:00,
2013-06-22 01:13:00,72.0,63.2,29.88,SE,135,8.7,9.2,74,0.00,,OVC,0.00,WeatherDisplay:10.37,2013-06-22 06:13:00,
2013-06-22 01:18:00,71.8,63.0,29.88,SE,135,9.9,10.4,74,0.00,,OVC,0.00,WeatherDisplay:10.37,2013-06-22 06:18:00,
2013-06-22 01:23:00,71.6,62.5,29.88,SE,135,7.6,10.4,73,0.00,,OVC,0.00,WeatherDisplay:10.37,2013-06-22 06:23:00,
2013-06-22 01:28:00,71.8,62.7,29.89,SE,135,9.9,10.4,73,0.00,,OVC,0.00,WeatherDisplay:10.37,2013-06-22 06:28:00,
2013-06-22 01:33:00,71.8,62.7,29.89,SE,135,9.7,11.5,73,0.00,,OVC,0.00,WeatherDisplay:10.37,2013-06-22 06:33:00,
2013-06-22 01:38:00,71.8,62.7,29.89,ESE,112,6.2,9.2,73,0.00,,OVC,0.00,WeatherDisplay:10.37,2013-06-22 06:38:00,
2013-06-22 01:43:00,71.6,62.1,29.90,ESE,112,5.9,6.9,72,0.00,,OVC,0.00,WeatherDisplay:10.37,2013-06-22 06:43:00,
2013-06-22 01:48:00,71.6,62.1,29.90,ESE,112,4.7,8.1,72,0.00,,OVC,0.00,WeatherDisplay:10.37,2013-06-22 06:48:00,
2013-06-22 01:53:00,71.6,61.7,29.90,ESE,112,5.4,5.8,71,0.00,,OVC,0.00,WeatherDisplay:10.37,2013-06-22 06:53:00,
2013-06-22 01:58:00,71.6,61.7,29.91,East,90,4.3,4.6,71,0.00,,OVC,0.00,WeatherDisplay:10.37,2013-06-22 06:58:00,
2013-06-22 02:03:00,71.6,61.3,29.91,East,90,3.3,3.5,70,0.00,,OVC,0.00,WeatherDisplay:10.37,2013-06-22 07:03:00,
2013-06-22 02:08:00,71.6,61.7,29.92,ENE,68,2.4,3.5,71,0.00,,OVC,0.00,WeatherDisplay:10.37,2013-06-22 07:08:00,
2013-06-22 02:13:00,71.4,61.9,29.92,East,90,4.0,4.6,72,0.00,,OVC,0.00,WeatherDisplay:10.37,2013-06-22 07:13:00,
2013-06-22 02:18:00,71.4,61.5,29.92,East,90,6.9,6.9,71,0.00,,OVC,0.00,WeatherDisplay:10.37,2013-06-22 07:18:00,
2013-06-22 02:23:00,71.6,61.7,29.92,NE,45,3.3,5.8,71,0.00,,OVC,0.00,WeatherDisplay:10.37,2013-06-22 07:23:00,
2013-06-22 02:28:00,71.4,61.5,29.92,East,90,6.4,6.4,71,0.00,,OVC,0.00,WeatherDisplay:10.37,2013-06-22 07:28:00,
2013-06-22 02:33:00,71.2,61.4,29.92,ENE,68,9.7,9.7,71,0.00,,OVC,0.00,WeatherDisplay:10.37,2013-06-22 07:33:00,
2013-06-22 02:38:00,71.2,60.5,29.92,ENE,68,4.5,5.8,69,0.00,,OVC,0.00,WeatherDisplay:10.37,2013-06-22 07:38:00,
2013-06-22 02:43:00,71.4,59.5,29.91,ESE,112,7.4,10.4,66,0.00,,OVC,0.00,WeatherDisplay:10.37,2013-06-22 07:43:00,
2013-06-22 02:48:00,72.0,61.2,29.91,East,90,6.9,6.9,69,0.00,,OVC,0.00,WeatherDisplay:10.37,2013-06-22 07:48:00,
2013-06-22 02:53:00,72.3,62.0,29.91,SE,135,8.7,9.2,70,0.00,,OVC,0.00,WeatherDisplay:10.37,2013-06-22 07:53:00,
2013-06-22 02:58:00,72.7,62.3,29.91,ESE,112,5.6,8.1,70,0.00,,OVC,0.00,WeatherDisplay:10.37,2013-06-22 07:58:00,
2013-06-22 03:03:00,72.9,62.5,29.90,ESE,112,6.4,6.9,70,0.00,,OVC,0.00,WeatherDisplay:10.37,2013-06-22 08:03:00,
2013-06-22 03:08:00,73.0,63.1,29.90,ESE,112,2.6,8.1,71,0.00,,OVC,0.00,WeatherDisplay:10.37,2013-06-22 08:08:00,
2013-06-22 03:13:00,72.9,62.9,29.89,East,90,4.5,4.6,71,0.00,,OVC,0.00,WeatherDisplay:10.37,2013-06-22 08:13:00,
2013-06-22 03:18:00,72.7,62.7,29.90,ESE,112,3.1,3.5,71,0.00,,OVC,0.00,WeatherDisplay:10.37,2013-06-22 08:18:00,
2013-06-22 03:23:00,72.5,62.2,29.90,SE,135,3.3,4.6,70,0.00,,OVC,0.00,WeatherDisplay:10.37,2013-06-22 08:23:00,
2013-06-22 03:28:00,72.5,61.7,29.90,ESE,112,7.4,7.4,69,0.00,,OVC,0.00,WeatherDisplay:10.37,2013-06-22 08:28:00,
2013-06-22 03:33:00,72.5,61.7,29.89,East,90,5.6,6.9,69,0.00,,OVC,0.00,WeatherDisplay:10.37,2013-06-22 08:33:00,
2013-06-22 03:38:00,72.5,61.7,29.89,SE,135,5.6,6.9,69,0.00,,OVC,0.00,WeatherDisplay:10.37,2013-06-22 08:38:00,
2013-06-22 03:43:00,72.3,61.6,29.90,SE,135,6.2,8.1,69,0.00,,OVC,0.00,WeatherDisplay:10.37,2013-06-22 08:43:00,
2013-06-22 03:48:00,72.3,61.2,29.90,ESE,112,6.7,6.9,68,0.00,,OVC,0.00,WeatherDisplay:10.37,2013-06-22 08:48:00,
2013-06-22 03:53:00,72.3,60.7,29.89,ESE,112,6.9,8.1,67,0.00,,OVC,0.00,WeatherDisplay:10.37,2013-06-22 08:53:00,
2013-06-22 03:58:00,72.5,61.3,29.89,SE,135,8.1,10.4,68,0.00,,OVC,0.00,WeatherDisplay:10.37,2013-06-22 08:58:00,
2013-06-22 04:03:00,72.5,61.3,29.89,ESE,112,8.5,9.2,68,0.00,,OVC,0.00,WeatherDisplay:10.37,2013-06-22 09:03:00,
2013-06-22 04:08:00,72.5,61.3,29.90,ESE,112,9.2,9.2,68,0.00,,OVC,0.00,WeatherDisplay:10.37,2013-06-22 09:08:00,
2013-06-22 04:13:00,72.3,60.7,29.90,SE,135,9.2,11.5,67,0.00,,OVC,0.00,WeatherDisplay:10.37,2013-06-22 09:13:00,
2013-06-22 04:18:00,72.3,60.7,29.91,WNW,292,4.9,6.9,67,0.00,,OVC,0.00,WeatherDisplay:10.37,2013-06-22 09:18:00,
2013-06-22 04:23:00,72.3,60.7,29.91,NNE,22,4.5,4.6,67,0.00,,OVC,0.00,WeatherDisplay:10.37,2013-06-22 09:23:00,
2013-06-22 04:28:00,72.5,60.5,29.91,NE,45,3.1,3.1,66,0.00,,OVC,0.00,WeatherDisplay:10.37,2013-06-22 09:28:00,
2013-06-22 04:33:00,72.5,60.9,29.91,NE,45,0.7,1.2,67,0.00,,OVC,0.00,WeatherDisplay:10.37,2013-06-22 09:33:00,
2013-06-22 04:38:00,72.7,60.2,29.91,ESE,112,2.4,2.4,65,0.00,,OVC,0.00,WeatherDisplay:10.37,2013-06-22 09:38:00,
2013-06-22 04:43:00,72.7,60.7,29.91,ESE,112,0.7,1.2,66,0.00,,OVC,0.00,WeatherDisplay:10.37,2013-06-22 09:43:00,
2013-06-22 04:48:00,72.7,60.2,29.91,ENE,68,6.0,6.0,65,0.00,,OVC,0.00,WeatherDisplay:10.37,2013-06-22 09:48:00,
2013-06-22 04:53:00,72.3,61.2,29.91,East,90,0.9,3.5,68,0.00,,OVC,0.00,WeatherDisplay:10.37,2013-06-22 09:53:00,
2013-06-22 04:58:00,71.8,60.6,29.92,East,90,3.6,3.6,68,0.00,,OVC,0.00,WeatherDisplay:10.37,2013-06-22 09:58:00,
2013-06-22 05:03:00,71.6,60.1,29.92,ESE,112,4.0,4.6,67,0.00,,OVC,0.00,WeatherDisplay:10.37,2013-06-22 10:03:00,
2013-06-22 05:08:00,71.4,59.5,29.93,ESE,112,3.3,3.5,66,0.00,,OVC,0.00,WeatherDisplay:10.37,2013-06-22 10:08:00,
2013-06-22 05:13:00,71.1,59.1,29.93,ESE,112,1.8,4.6,66,0.00,,OVC,0.00,WeatherDisplay:10.37,2013-06-22 10:13:00,
2013-06-22 05:18:00,71.1,59.1,29.94,East,90,4.5,4.5,66,0.00,,OVC,0.00,WeatherDisplay:10.37,2013-06-22 10:18:00,
2013-06-22 05:23:00,70.9,58.5,29.94,ESE,112,3.1,4.6,65,0.00,,OVC,0.00,WeatherDisplay:10.37,2013-06-22 10:23:00,
2013-06-22 05:28:00,70.9,58.5,29.93,East,90,3.8,4.6,65,0.00,,OVC,0.00,WeatherDisplay:10.37,2013-06-22 10:28:00,
2013-06-22 05:33:00,70.7,58.4,29.94,ENE,68,3.1,3.5,65,0.00,,OVC,0.00,WeatherDisplay:10.37,2013-06-22 10:33:00,
2013-06-22 05:38:00,70.7,58.4,29.94,East,90,4.7,4.7,65,0.00,,OVC,0.00,WeatherDisplay:10.37,2013-06-22 10:38:00,
2013-06-22 05:43:00,70.5,58.6,29.93,ENE,68,1.8,5.8,66,0.00,,OVC,0.00,WeatherDisplay:10.37,2013-06-22 10:43:00,
2013-06-22 05:48:00,70.5,58.2,29.93,SE,135,1.8,2.3,65,0.00,,OVC,0.00,WeatherDisplay:10.37,2013-06-22 10:48:00,
2013-06-22 05:53:00,70.5,57.8,29.93,ESE,112,2.0,2.3,64,0.00,,OVC,0.00,WeatherDisplay:10.37,2013-06-22 10:53:00,
2013-06-22 05:58:00,70.5,58.2,29.93,East,90,2.4,3.5,65,0.00,,OVC,0.00,WeatherDisplay:10.37,2013-06-22 10:58:00,
2013-06-22 06:03:00,70.5,58.2,29.93,NE,45,3.3,3.3,65,0.00,,OVC,0.00,WeatherDisplay:10.37,2013-06-22 11:03:00,
2013-06-22 06:09:00,70.5,57.8,29.94,NE,45,4.0,4.6,64,0.00,,OVC,0.00,WeatherDisplay:10.37,2013-06-22 11:09:00,
2013-06-22 06:13:00,70.5,57.3,29.95,NE,45,3.6,4.6,63,0.00,,OVC,0.00,WeatherDisplay:10.37,2013-06-22 11:13:00,
2013-06-22 06:19:00,70.5,56.9,29.95,NE,45,4.0,5.8,62,0.00,,OVC,0.00,WeatherDisplay:10.37,2013-06-22 11:19:00,
2013-06-22 06:24:00,70.5,56.9,29.96,NE,45,5.6,5.6,62,0.00,,OVC,0.00,WeatherDisplay:10.37,2013-06-22 11:24:00,
2013-06-22 06:29:00,70.5,56.4,29.95,NNE,22,7.6,10.4,61,0.00,,OVC,0.00,WeatherDisplay:10.37,2013-06-22 11:29:00,
2013-06-22 06:34:00,69.8,56.6,29.94,NE,45,10.0,10.0,63,0.00,,OVC,0.00,WeatherDisplay:10.37,2013-06-22 11:34:00,
2013-06-22 06:39:00,68.7,58.1,29.95,ENE,68,19.2,19.2,69,0.00,,OVC,0.00,WeatherDisplay:10.37,2013-06-22 11:39:00,
2013-06-22 06:44:00,68.2,58.4,29.94,NE,45,8.3,10.4,71,0.00,,OVC,0.00,WeatherDisplay:10.37,2013-06-22 11:44:00,
2013-06-22 06:49:00,67.6,58.7,29.96,ENE,68,7.4,7.4,73,0.00,,OVC,0.00,WeatherDisplay:10.37,2013-06-22 11:49:00,
2013-06-22 06:54:00,67.5,58.5,29.96,ENE,68,16.6,16.6,73,0.00,,OVC,0.00,WeatherDisplay:10.37,2013-06-22 11:54:00,
2013-06-22 06:59:00,67.3,57.9,29.97,East,90,11.8,19.6,72,0.00,,OVC,0.00,WeatherDisplay:10.37,2013-06-22 11:59:00,
2013-06-22 07:04:00,67.1,57.8,29.97,East,90,19.0,19.0,72,0.00,,OVC,0.00,WeatherDisplay:10.37,2013-06-22 12:04:00,
2013-06-22 07:09:00,67.1,57.4,29.96,ENE,68,8.1,18.4,71,0.00,,OVC,0.00,WeatherDisplay:10.37,2013-06-22 12:09:00,
2013-06-22 07:14:00,67.1,57.4,29.96,ENE,68,13.5,13.8,71,0.00,,OVC,0.00,WeatherDisplay:10.37,2013-06-22 12:14:00,
2013-06-22 07:19:00,66.9,57.2,29.96,East,90,12.1,16.1,71,0.00,,OVC,0.00,WeatherDisplay:10.37,2013-06-22 12:19:00,
2013-06-22 07:24:00,66.9,57.2,29.95,East,90,12.5,13.8,71,0.00,,OVC,0.00,WeatherDisplay:10.37,2013-06-22 12:24:00,
2013-06-22 07:29:00,66.9,56.8,29.94,ESE,112,16.3,16.3,70,0.00,,OVC,0.00,WeatherDisplay:10.37,2013-06-22 12:29:00,
2013-06-22 07:34:00,66.9,56.8,29.93,ENE,68,12.8,16.1,70,0.00,,OVC,0.00,WeatherDisplay:10.37,2013-06-22 12:34:00,
2013-06-22 07:39:00,66.9,56.4,29.93,ENE,68,13.0,13.0,69,0.00,,OVC,0.00,WeatherDisplay:10.37,2013-06-22 12:39:00,
2013-06-22 07:44:00,66.7,56.2,29.93,East,90,19.0,19.0,69,0.00,,OVC,0.00,WeatherDisplay:10.37,2013-06-22 12:44:00,
2013-06-22 07:49:00,66.6,56.1,29.93,ESE,112,14.3,16.1,69,0.00,,OVC,0.00,WeatherDisplay:10.37,2013-06-22 12:49:00,
2013-06-22 07:54:00,66.6,56.5,29.94,ENE,68,15.2,15.2,70,0.00,,OVC,0.00,WeatherDisplay:10.37,2013-06-22 12:54:00,
2013-06-22 07:59:00,66.2,56.1,29.95,ESE,112,18.3,18.4,70,0.00,,OVC,0.00,WeatherDisplay:10.37,2013-06-22 12:59:00,
2013-06-22 08:04:00,66.2,56.1,29.96,East,90,20.8,20.8,70,0.00,,OVC,0.00,WeatherDisplay:10.37,2013-06-22 13:04:00,
2013-06-22 08:09:00,66.4,56.3,29.96,ESE,112,18.5,18.5,70,0.00,,OVC,0.00,WeatherDisplay:10.37,2013-06-22 13:09:00,
2013-06-22 08:14:00,66.4,56.7,29.98,ESE,112,16.8,18.4,71,0.00,,OVC,0.00,WeatherDisplay:10.37,2013-06-22 13:14:00,
2013-06-22 08:19:00,66.4,56.7,29.97,ESE,112,18.7,21.9,71,0.00,,OVC,0.00,WeatherDisplay:10.37,2013-06-22 13:19:00,
2013-06-22 08:24:00,66.4,57.1,29.97,ESE,112,14.5,15.0,72,0.00,,OVC,0.00,WeatherDisplay:10.37,2013-06-22 13:24:00,
2013-06-22 08:29:00,66.4,57.1,29.96,ESE,112,12.8,12.8,72,0.00,,OVC,0.00,WeatherDisplay:10.37,2013-06-22 13:29:00,
2013-06-22 08:34:00,66.6,57.3,29.95,SE,135,11.6,11.6,72,0.00,,OVC,0.00,WeatherDisplay:10.37,2013-06-22 13:34:00,
2013-06-22 08:39:00,66.6,56.9,29.96,ESE,112,13.0,13.0,71,0.00,,OVC,0.00,WeatherDisplay:10.37,2013-06-22 13:39:00,
2013-06-22 08:44:00,66.6,56.9,29.96,SE,135,13.7,13.8,71,0.00,,OVC,0.00,WeatherDisplay:10.37,2013-06-22 13:44:00,
2013-06-22 08:49:00,66.6,57.3,29.97,ESE,112,14.7,15.0,72,0.00,,OVC,0.00,WeatherDisplay:10.37,2013-06-22 13:49:00,
2013-06-22 08:54:00,66.9,57.6,29.96,ESE,112,9.0,10.4,72,0.00,,OVC,0.00,WeatherDisplay:10.37,2013-06-22 13:54:00,
2013-06-22 08:59:00,66.9,58.0,29.96,East,90,9.9,10.4,73,0.00,,OVC,0.00,WeatherDisplay:10.37,2013-06-22 13:59:00,
2013-06-22 09:04:00,67.1,58.2,29.96,ESE,112,11.4,11.5,73,0.00,,OVC,0.00,WeatherDisplay:10.37,2013-06-22 14:04:00,
2013-06-22 09:09:00,67.3,58.7,29.96,ESE,112,9.9,11.5,74,0.00,,OVC,0.00,WeatherDisplay:10.37,2013-06-22 14:09:00,
2013-06-22 09:14:00,67.3,58.3,29.96,SE,135,9.9,11.5,73,0.00,,OVC,0.00,WeatherDisplay:10.37,2013-06-22 14:14:00,
2013-06-22 09:19:00,67.5,58.9,29.96,ESE,112,13.2,15.0,74,0.00,,OVC,0.00,WeatherDisplay:10.37,2013-06-22 14:19:00,
2013-06-22 09:24:00,67.6,59.1,29.96,SE,135,11.6,11.6,74,0.00,,OVC,0.00,WeatherDisplay:10.37,2013-06-22 14:24:00,
2013-06-22 09:29:00,67.8,59.6,29.96,SE,135,14.0,15.0,75,0.00,,OVC,0.00,WeatherDisplay:10.37,2013-06-22 14:29:00,
2013-06-22 09:34:00,68.0,59.8,29.96,ESE,112,13.5,18.4,75,0.00,,OVC,0.00,WeatherDisplay:10.37,2013-06-22 14:34:00,
2013-06-22 09:39:00,68.4,60.9,29.96,ESE,112,17.5,17.5,77,0.00,,OVC,0.00,WeatherDisplay:10.37,2013-06-22 14:39:00,
2013-06-22 09:44:00,68.7,61.2,29.96,ESE,112,16.8,18.4,77,0.00,,OVC,0.00,WeatherDisplay:10.37,2013-06-22 14:44:00,
2013-06-22 09:49:00,69.1,61.6,29.96,SE,135,14.0,14.0,77,0.00,,OVC,0.00,WeatherDisplay:10.37,2013-06-22 14:49:00,
2013-06-22 09:54:00,69.1,61.6,29.96,ESE,112,11.8,12.7,77,0.00,,OVC,0.00,WeatherDisplay:10.37,2013-06-22 14:54:00,
2013-06-22 09:59:00,69.4,61.9,29.97,ESE,112,11.6,15.0,77,0.00,,OVC,0.00,WeatherDisplay:10.37,2013-06-22 14:59:00,
2013-06-22 10:04:00,69.4,61.9,29.97,SE,135,17.3,17.3,77,0.00,,OVC,0.00,WeatherDisplay:10.37,2013-06-22 15:04:00,
2013-06-22 10:09:00,69.6,62.1,29.97,SSE,158,13.5,15.0,77,0.00,,OVC,0.00,WeatherDisplay:10.37,2013-06-22 15:09:00,
2013-06-22 10:14:00,69.8,62.3,29.97,SSE,158,11.4,13.8,77,0.00,,OVC,0.00,WeatherDisplay:10.37,2013-06-22 15:14:00,
2013-06-22 10:19:00,70.2,62.6,29.97,SE,135,14.3,15.0,77,0.00,,OVC,0.00,WeatherDisplay:10.37,2013-06-22 15:19:00,
2013-06-22 10:24:00,70.5,63.0,29.97,SSE,158,16.8,16.8,77,0.00,,OVC,0.00,WeatherDisplay:10.37,2013-06-22 15:24:00,
2013-06-22 10:29:00,71.1,63.5,29.97,SSE,158,15.6,15.6,77,0.00,,OVC,0.00,WeatherDisplay:10.37,2013-06-22 15:29:00,
2013-06-22 10:34:00,71.6,63.6,29.96,SSE,158,15.4,16.1,76,0.00,,OVC,0.00,WeatherDisplay:10.37,2013-06-22 15:34:00,
2013-06-22 10:39:00,72.0,64.4,29.96,SE,135,15.2,18.4,77,0.00,,OVC,0.00,WeatherDisplay:10.37,2013-06-22 15:39:00,
2013-06-22 10:44:00,72.7,65.1,29.96,South,180,12.8,16.1,77,0.00,,OVC,0.00,WeatherDisplay:10.37,2013-06-22 15:44:00,
2013-06-22 10:49:00,72.9,65.2,29.96,SSW,202,13.9,20.7,77,0.00,,OVC,0.00,WeatherDisplay:10.37,2013-06-22 15:49:00,
2013-06-22 10:54:00,72.9,65.6,29.96,SSW,202,8.5,12.7,78,0.00,,OVC,0.00,WeatherDisplay:10.37,2013-06-22 15:54:00,
2013-06-22 10:59:00,73.0,65.4,29.96,SSE,158,12.1,13.8,77,0.00,,OVC,0.00,WeatherDisplay:10.37,2013-06-22 15:59:00,
2013-06-22 11:04:00,73.0,65.4,29.96,SSW,202,8.5,17.3,77,0.00,,OVC,0.00,WeatherDisplay:10.37,2013-06-22 16:04:00,
2013-06-22 11:09:00,73.6,65.9,29.96,South,180,13.5,17.3,77,0.00,,OVC,0.00,WeatherDisplay:10.37,2013-06-22 16:09:00,
2013-06-22 11:14:00,74.1,66.4,29.96,SSW,202,8.5,15.0,77,0.00,,OVC,0.00,WeatherDisplay:10.37,2013-06-22 16:14:00,
2013-06-22 11:19:00,74.8,67.1,29.96,SSE,158,12.8,12.8,77,0.00,,OVC,0.00,WeatherDisplay:10.37,2013-06-22 16:19:00,
2013-06-22 11:24:00,75.6,67.5,29.97,SSW,202,8.3,9.2,76,0.00,,OVC,0.00,WeatherDisplay:10.37,2013-06-22 16:24:00,
2013-06-22 11:29:00,75.9,67.8,29.96,SE,135,15.6,15.6,76,0.00,,OVC,0.00,WeatherDisplay:10.37,2013-06-22 16:29:00,
2013-06-22 11:34:00,76.5,68.3,29.96,South,180,8.7,13.8,76,0.00,,OVC,0.00,WeatherDisplay:10.37,2013-06-22 16:34:00,
2013-06-22 11:39:00,76.8,68.7,29.96,South,180,11.4,11.4,76,0.00,,OVC,0.00,WeatherDisplay:10.37,2013-06-22 16:39:00,
2013-06-22 11:44:00,76.6,68.5,29.96,South,180,8.7,11.5,76,0.00,,OVC,0.00,WeatherDisplay:10.37,2013-06-22 16:44:00,
2013-06-22 11:49:00,76.3,68.2,29.97,South,180,8.7,10.4,76,0.00,,OVC,0.00,WeatherDisplay:10.37,2013-06-22 16:49:00,
2013-06-22 11:54:00,76.3,68.2,29.96,South,180,6.9,8.1,76,0.00,,OVC,0.00,WeatherDisplay:10.37,2013-06-22 16:54:00,
2013-06-22 11:59:00,76.3,67.8,29.96,SSE,158,7.4,10.4,75,0.00,,OVC,0.00,WeatherDisplay:10.37,2013-06-22 16:59:00,
2013-06-22 12:04:00,76.3,68.2,29.96,SSW,202,7.4,11.5,76,0.00,,OVC,0.00,WeatherDisplay:10.37,2013-06-22 17:04:00,
2013-06-22 12:10:00,76.3,67.8,29.96,South,180,5.9,6.9,75,0.00,,OVC,0.00,WeatherDisplay:10.37,2013-06-22 17:10:00,
2013-06-22 12:15:00,76.5,67.9,29.95,SSE,158,6.9,8.1,75,0.00,,OVC,0.00,WeatherDisplay:10.37,2013-06-22 17:15:00,
2013-06-22 12:20:00,76.5,67.9,29.96,SSE,158,9.2,9.2,75,0.00,,OVC,0.00,WeatherDisplay:10.37,2013-06-22 17:20:00,
2013-06-22 12:25:00,76.5,67.9,29.95,SSE,158,6.7,8.1,75,0.00,,OVC,0.00,WeatherDisplay:10.37,2013-06-22 17:25:00,
2013-06-22 12:30:00,76.5,67.9,29.95,South,180,7.4,11.5,75,0.00,,OVC,0.00,WeatherDisplay:10.37,2013-06-22 17:30:00,
2013-06-22 12:35:00,76.8,67.9,29.94,SSE,158,12.3,12.3,74,0.00,,OVC,0.00,WeatherDisplay:10.37,2013-06-22 17:35:00,
2013-06-22 12:40:00,77.0,68.1,29.94,SSE,158,8.1,11.5,74,0.00,,OVC,0.00,WeatherDisplay:10.37,2013-06-22 17:40:00,
2013-06-22 12:45:00,77.4,68.8,29.93,SSW,202,8.3,12.7,75,0.00,,OVC,0.00,WeatherDisplay:10.37,2013-06-22 17:45:00,
2013-06-22 12:50:00,77.9,68.9,29.93,SSE,158,9.7,10.4,74,0.00,,OVC,0.00,WeatherDisplay:10.37,2013-06-22 17:50:00,
2013-06-22 12:55:00,78.8,69.4,29.92,SE,135,8.1,9.2,73,0.00,,OVC,0.00,WeatherDisplay:10.37,2013-06-22 17:55:00,
2013-06-22 13:00:00,79.5,70.5,29.91,SSE,158,15.4,15.4,74,0.00,,OVC,0.00,WeatherDisplay:10.37,2013-06-22 18:00:00,
2013-06-22 13:05:00,80.1,71.0,29.90,SE,135,9.9,16.1,74,0.00,,OVC,0.00,WeatherDisplay:10.37,2013-06-22 18:05:00,
2013-06-22 13:10:00,80.4,71.8,29.88,SSE,158,15.2,20.7,75,0.00,,OVC,0.00,WeatherDisplay:10.37,2013-06-22 18:10:00,
2013-06-22 13:15:00,80.8,72.1,29.86,SSE,158,18.7,20.7,75,0.00,,OVC,0.00,WeatherDisplay:10.37,2013-06-22 18:15:00,
2013-06-22 13:20:00,81.1,72.5,29.86,SE,135,20.8,23.0,75,0.00,,OVC,0.00,WeatherDisplay:10.37,2013-06-22 18:20:00,
2013-06-22 13:25:00,81.5,72.8,29.86,SSE,158,19.2,21.9,75,0.00,,OVC,0.00,WeatherDisplay:10.37,2013-06-22 18:25:00,
2013-06-22 13:30:00,81.7,73.4,29.86,SSE,158,14.3,21.9,76,0.00,,OVC,0.00,WeatherDisplay:10.37,2013-06-22 18:30:00,
2013-06-22 13:35:00,81.7,73.4,29.86,SE,135,18.3,18.4,76,0.00,,OVC,0.00,WeatherDisplay:10.37,2013-06-22 18:35:00,
2013-06-22 13:40:00,81.9,73.5,29.86,SSW,202,18.1,18.4,76,0.00,,OVC,0.00,WeatherDisplay:10.37,2013-06-22 18:40:00,
2013-06-22 13:45:00,82.2,73.9,29.87,SSW,202,15.2,15.2,76,0.00,,OVC,0.00,WeatherDisplay:10.37,2013-06-22 18:45:00,
2013-06-22 13:50:00,82.6,74.2,29.87,SSE,158,20.8,20.8,76,0.00,,OVC,0.00,WeatherDisplay:10.37,2013-06-22 18:50:00,
2013-06-22 13:55:00,83.1,74.8,29.87,SSE,158,15.9,16.1,76,0.00,,OVC,0.00,WeatherDisplay:10.37,2013-06-22 18:55:00,
2013-06-22 14:00:00,82.9,74.6,29.87,South,180,11.4,16.1,76,0.00,,OVC,0.00,WeatherDisplay:10.37,2013-06-22 19:00:00,
2013-06-22 14:05:00,83.1,74.8,29.87,SSW,202,21.3,21.3,76,0.00,,OVC,0.00,WeatherDisplay:10.37,2013-06-22 19:05:00,
2013-06-22 14:10:00,82.8,74.4,29.87,SSE,158,20.1,20.7,76,0.00,,OVC,0.00,WeatherDisplay:10.37,2013-06-22 19:10:00,
2013-06-22 14:15:00,82.8,74.4,29.88,South,180,9.2,12.7,76,0.00,,OVC,0.00,WeatherDisplay:10.37,2013-06-22 19:15:00,
2013-06-22 14:20:00,83.1,74.8,29.88,South,180,10.5,20.7,76,0.00,,OVC,0.00,WeatherDisplay:10.37,2013-06-22 19:20:00,
2013-06-22 14:25:00,83.1,74.4,29.88,SSE,158,16.3,19.6,75,0.00,,OVC,0.00,WeatherDisplay:10.37,2013-06-22 19:25:00,
2013-06-22 14:30:00,83.3,74.9,29.88,SSW,202,19.4,19.4,76,0.00,,OVC,0.00,WeatherDisplay:10.37,2013-06-22 19:30:00,
2013-06-22 14:35:00,83.7,75.3,29.88,SSE,158,13.7,13.7,76,0.00,,OVC,0.00,WeatherDisplay:10.37,2013-06-22 19:35:00,
2013-06-22 14:40:00,83.7,75.3,29.88,SSW,202,16.3,16.3,76,0.00,,OVC,0.00,WeatherDisplay:10.37,2013-06-22 19:40:00,
2013-06-22 14:45:00,83.5,74.7,29.88,South,180,14.7,16.1,75,0.00,,OVC,0.00,WeatherDisplay:10.37,2013-06-22 19:45:00,
2013-06-22 14:50:00,83.7,74.9,29.88,SSE,158,14.5,14.5,75,0.00,,OVC,0.00,WeatherDisplay:10.37,2013-06-22 19:50:00,
2013-06-22 14:55:00,83.8,75.1,29.88,South,180,7.1,13.8,75,0.00,,OVC,0.00,WeatherDisplay:10.37,2013-06-22 19:55:00,
2013-06-22 15:00:00,84.2,75.4,29.88,SSE,158,7.4,13.8,75,0.00,,OVC,0.00,WeatherDisplay:10.37,2013-06-22 20:00:00,
2013-06-22 15:05:00,84.4,75.2,29.88,South,180,8.5,10.4,74,0.00,,OVC,0.00,WeatherDisplay:10.37,2013-06-22 20:05:00,
2013-06-22 15:10:00,83.8,75.1,29.88,SSE,158,13.5,13.8,75,0.00,,OVC,0.00,WeatherDisplay:10.37,2013-06-22 20:10:00,
2013-06-22 15:15:00,83.8,75.1,29.88,SSE,158,13.7,16.1,75,0.00,,OVC,0.00,WeatherDisplay:10.37,2013-06-22 20:15:00,
2013-06-22 15:20:00,84.6,75.8,29.88,SSW,202,10.0,12.7,75,0.00,,OVC,0.00,WeatherDisplay:10.37,2013-06-22 20:20:00,
2013-06-22 15:25:00,84.2,75.4,29.88,South,180,10.0,11.5,75,0.00,,OVC,0.00,WeatherDisplay:10.37,2013-06-22 20:25:00,
2013-06-22 15:30:00,84.0,75.2,29.88,SSE,158,12.3,12.3,75,0.00,,OVC,0.00,WeatherDisplay:10.37,2013-06-22 20:30:00,
2013-06-22 15:35:00,84.4,75.6,29.88,SSE,158,11.6,16.1,75,0.00,,OVC,0.00,WeatherDisplay:10.37,2013-06-22 20:35:00,
2013-06-22 15:40:00,84.7,75.5,29.88,South,180,11.2,15.0,74,0.00,,OVC,0.00,WeatherDisplay:10.37,2013-06-22 20:40:00,
2013-06-22 15:45:00,84.9,75.3,29.88,South,180,7.8,12.7,73,0.00,,OVC,0.00,WeatherDisplay:10.37,2013-06-22 20:45:00,
2013-06-22 15:50:00,85.1,75.9,29.88,SSE,158,12.8,15.0,74,0.00,,OVC,0.00,WeatherDisplay:10.37,2013-06-22 20:50:00,
2013-06-22 15:55:00,85.3,76.0,29.88,SSW,202,12.8,17.3,74,0.00,,OVC,0.00,WeatherDisplay:10.37,2013-06-22 20:55:00,
2013-06-22 16:00:00,85.3,75.6,29.88,SSE,158,6.9,11.5,73,0.00,,OVC,0.00,WeatherDisplay:10.37,2013-06-22 21:00:00,
2013-06-22 16:05:00,85.1,75.9,29.88,South,180,8.3,8.3,74,0.00,,OVC,0.00,WeatherDisplay:10.37,2013-06-22 21:05:00,
2013-06-22 16:10:00,85.3,75.6,29.88,South,180,8.5,15.0,73,0.00,,OVC,0.00,WeatherDisplay:10.37,2013-06-22 21:10:00,
2013-06-22 16:15:00,85.6,76.0,29.88,South,180,14.5,15.0,73,0.00,,OVC,0.00,WeatherDisplay:10.37,2013-06-22 21:15:00,
2013-06-22 16:20:00,85.8,76.2,29.87,South,180,8.1,10.4,73,0.00,,OVC,0.00,WeatherDisplay:10.37,2013-06-22 21:20:00,
2013-06-22 16:25:00,86.0,75.9,29.88,SSW,202,5.6,13.8,72,0.00,,OVC,0.00,WeatherDisplay:10.37,2013-06-22 21:25:00,
2013-06-22 16:30:00,86.0,75.9,29.87,South,180,9.2,9.2,72,0.00,,OVC,0.00,WeatherDisplay:10.37,2013-06-22 21:30:00,
2013-06-22 16:35:00,86.0,76.3,29.87,SSW,202,9.2,9.2,73,0.00,,OVC,0.00,WeatherDisplay:10.37,2013-06-22 21:35:00,
2013-06-22 16:40:00,86.4,76.3,29.87,SSW,202,4.3,8.1,72,0.00,,OVC,0.00,WeatherDisplay:10.37,2013-06-22 21:40:00,
2013-06-22 16:45:00,86.0,75.5,29.88,South,180,6.7,6.7,71,0.00,,OVC,0.00,WeatherDisplay:10.37,2013-06-22 21:45:00,
2013-06-22 16:50:00,85.8,75.7,29.87,SSW,202,5.4,10.4,72,0.00,,OVC,0.00,WeatherDisplay:10.37,2013-06-22 21:50:00,
2013-06-22 16:55:00,86.0,75.9,29.87,South,180,6.2,6.9,72,0.00,,OVC,0.00,WeatherDisplay:10.37,2013-06-22 21:55:00,
2013-06-22 17:00:00,86.2,75.2,29.87,SSE,158,8.5,11.5,70,0.00,,OVC,0.00,WeatherDisplay:10.37,2013-06-22 22:00:00,
2013-06-22 17:05:00,86.2,75.7,29.88,SSE,158,5.6,6.9,71,0.00,,OVC,0.00,WeatherDisplay:10.37,2013-06-22 22:05:00,
2013-06-22 17:10:00,86.4,75.8,29.87,SSW,202,4.9,8.1,71,0.00,,OVC,0.00,WeatherDisplay:10.37,2013-06-22 22:10:00,
2013-06-22 17:15:00,86.2,75.7,29.87,South,180,8.5,8.5,71,0.00,,OVC,0.00,WeatherDisplay:10.37,2013-06-22 22:15:00,
2013-06-22 17:20:00,86.2,75.2,29.87,South,180,5.6,9.2,70,0.00,,OVC,0.00,WeatherDisplay:10.37,2013-06-22 22:20:00,
2013-06-22 17:25:00,86.4,75.8,29.87,SSW,202,5.4,8.1,71,0.00,,OVC,0.00,WeatherDisplay:10.37,2013-06-22 22:25:00,
2013-06-22 17:30:00,86.2,74.8,29.86,South,180,9.7,9.7,69,0.00,,OVC,0.00,WeatherDisplay:10.37,2013-06-22 22:30:00,
2013-06-22 17:35:00,86.0,75.1,29.86,SSW,202,9.4,9.4,70,0.00,,OVC,0.00,WeatherDisplay:10.37,2013-06-22 22:35:00,
2013-06-22 17:41:00,86.2,75.2,29.85,SSE,158,8.5,10.4,70,0.00,,OVC,0.00,WeatherDisplay:10.37,2013-06-22 22:41:00,
2013-06-22 17:46:00,86.4,75.8,29.85,South,180,7.1,10.4,71,0.00,,OVC,0.00,WeatherDisplay:10.37,2013-06-22 22:46:00,
2013-06-22 17:51:00,86.0,75.5,29.85,SW,225,8.3,10.4,71,0.00,,OVC,0.00,WeatherDisplay:10.37,2013-06-22 22:51:00,
2013-06-22 17:56:00,85.6,74.3,29.85,SW,225,9.2,9.2,69,0.00,,OVC,0.00,WeatherDisplay:10.37,2013-06-22 22:56:00,
2013-06-22 18:01:00,85.6,74.3,29.84,SW,225,6.2,8.1,69,0.00,,OVC,0.00,WeatherDisplay:10.37,2013-06-22 23:01:00,
2013-06-22 18:06:00,85.3,74.8,29.85,SSW,202,7.8,7.8,71,0.00,,OVC,0.00,WeatherDisplay:10.37,2013-06-22 23:06:00,
2013-06-22 18:11:00,85.3,75.2,29.85,South,180,6.2,6.9,72,0.00,,OVC,0.00,WeatherDisplay:10.37,2013-06-22 23:11:00,
2013-06-22 18:16:00,85.1,75.1,29.84,South,180,6.7,6.9,72,0.00,,OVC,0.00,WeatherDisplay:10.37,2013-06-22 23:16:00,
2013-06-22 18:21:00,84.9,74.9,29.83,SE,135,5.9,6.9,72,0.00,,OVC,0.00,WeatherDisplay:10.37,2013-06-22 23:21:00,
2013-06-22 18:26:00,84.9,74.9,29.83,SSW,202,6.9,6.9,72,0.00,,OVC,0.00,WeatherDisplay:10.37,2013-06-22 23:26:00,
2013-06-22 18:31:00,84.7,74.7,29.83,SW,225,9.0,9.2,72,0.00,,OVC,0.00,WeatherDisplay:10.37,2013-06-22 23:31:00,
2013-06-22 18:36:00,84.6,74.5,29.83,South,180,7.4,8.1,72,0.00,,OVC,0.00,WeatherDisplay:10.37,2013-06-22 23:36:00,
2013-06-22 18:41:00,84.6,74.9,29.83,SSW,202,5.4,5.8,73,0.00,,OVC,0.00,WeatherDisplay:10.37,2013-06-22 23:41:00,
2013-06-22 18:46:00,83.8,69.4,29.84,SSW,202,8.5,19.6,62,0.00,,OVC,0.00,WeatherDisplay:10.37,2013-06-22 23:46:00,
2013-06-22 18:51:00,82.0,66.8,29.84,SSW,202,9.2,10.4,60,0.00,,OVC,0.00,WeatherDisplay:10.37,2013-06-22 23:51:00,
2013-06-22 18:56:00,81.0,67.2,29.83,South,180,6.2,6.9,63,0.00,,OVC,0.00,WeatherDisplay:10.37,2013-06-22 23:56:00,
2013-06-22 19:01:00,81.0,67.6,29.83,South,180,7.8,8.1,64,0.00,,OVC,0.00,WeatherDisplay:10.37,2013-06-23 00:01:00,
2013-06-22 19:06:00,80.6,67.3,29.83,SE,135,4.5,5.8,64,0.00,,OVC,0.00,WeatherDisplay:10.37,2013-06-23 00:06:00,
2013-06-22 19:11:00,80.6,67.3,29.83,SSW,202,4.3,4.6,64,0.00,,OVC,0.00,WeatherDisplay:10.37,2013-06-23 00:11:00,
2013-06-22 19:16:00,81.0,68.1,29.83,SSE,158,3.1,4.6,65,0.00,,OVC,0.00,WeatherDisplay:10.37,2013-06-23 00:16:00,
2013-06-22 19:21:00,81.3,68.0,29.83,SSE,158,1.4,3.5,64,0.00,,OVC,0.00,WeatherDisplay:10.37,2013-06-23 00:21:00,
2013-06-22 19:26:00,81.3,68.9,29.84,SSE,158,4.3,4.6,66,0.00,,OVC,0.00,WeatherDisplay:10.37,2013-06-23 00:26:00,
2013-06-22 19:31:00,81.3,68.9,29.84,SSE,158,4.0,4.6,66,0.00,,OVC,0.00,WeatherDisplay:10.37,2013-06-23 00:31:00,
2013-06-22 19:36:00,81.5,69.5,29.84,SE,135,4.3,4.6,67,0.00,,OVC,0.00,WeatherDisplay:10.37,2013-06-23 00:36:00,
2013-06-22 19:41:00,81.5,69.5,29.84,SE,135,5.4,5.8,67,0.00,,OVC,0.00,WeatherDisplay:10.37,2013-06-23 00:41:00,
2013-06-22 19:46:00,81.7,70.5,29.84,SE,135,5.4,5.8,69,0.00,,OVC,0.00,WeatherDisplay:10.37,2013-06-23 00:46:00,
2013-06-22 19:51:00,81.7,70.9,29.83,SSE,158,6.0,6.9,70,0.00,,OVC,0.00,WeatherDisplay:10.37,2013-06-23 00:51:00,
2013-06-22 19:56:00,81.7,71.4,29.83,SE,135,6.0,8.1,71,0.00,,OVC,0.00,WeatherDisplay:10.37,2013-06-23 00:56:00,
2013-06-22 20:01:00,81.7,71.8,29.82,SE,135,5.6,6.9,72,0.00,,OVC,0.00,WeatherDisplay:10.37,2013-06-23 01:01:00,
2013-06-22 20:06:00,81.5,72.0,29.81,SE,135,7.1,7.1,73,0.00,,OVC,0.00,WeatherDisplay:10.37,2013-06-23 01:06:00,
2013-06-22 20:11:00,81.3,72.2,29.81,SSE,158,6.0,6.9,74,0.00,,OVC,0.00,WeatherDisplay:10.37,2013-06-23 01:11:00,
2013-06-22 20:16:00,81.1,72.1,29.80,SSE,158,8.1,8.1,74,0.00,,OVC,0.00,WeatherDisplay:10.37,2013-06-23 01:16:00,
2013-06-22 20:21:00,80.8,72.1,29.80,SSW,202,7.4,8.1,75,0.00,,OVC,0.00,WeatherDisplay:10.37,2013-06-23 01:21:00,
2013-06-22 20:26:00,80.4,71.8,29.81,SSE,158,4.0,5.8,75,0.00,,OVC,0.00,WeatherDisplay:10.37,2013-06-23 01:26:00,
2013-06-22 20:31:00,80.2,71.6,29.82,South,180,3.1,4.6,75,0.00,,OVC,0.00,WeatherDisplay:10.37,2013-06-23 01:31:00,
2013-06-22 20:36:00,80.6,71.9,29.84,SSW,202,4.3,4.3,75,0.00,,OVC,0.00,WeatherDisplay:10.37,2013-06-23 01:36:00,
2013-06-22 20:41:00,80.6,71.9,29.85,South,180,2.9,3.5,75,0.00,,OVC,0.00,WeatherDisplay:10.37,2013-06-23 01:41:00,
2013-06-22 20:46:00,81.0,72.3,29.85,South,180,4.0,5.8,75,0.00,,OVC,0.00,WeatherDisplay:10.37,2013-06-23 01:46:00,
2013-06-22 20:51:00,81.0,72.3,29.85,SW,225,4.0,4.0,75,0.00,,OVC,0.00,WeatherDisplay:10.37,2013-06-23 01:51:00,
2013-06-22 20:56:00,81.0,72.3,29.85,South,180,4.9,4.9,75,0.00,,OVC,0.00,WeatherDisplay:10.37,2013-06-23 01:56:00,
2013-06-22 21:01:00,80.6,71.9,29.86,SW,225,4.0,4.6,75,0.00,,OVC,0.00,WeatherDisplay:10.37,2013-06-23 02:01:00,
2013-06-22 21:06:00,80.6,71.9,29.85,South,180,4.9,4.9,75,0.00,,OVC,0.00,WeatherDisplay:10.37,2013-06-23 02:06:00,
2013-06-22 21:11:00,80.2,71.6,29.85,SSE,158,3.1,3.5,75,0.00,,OVC,0.00,WeatherDisplay:10.37,2013-06-23 02:11:00,
2013-06-22 21:16:00,79.9,71.2,29.84,SSE,158,3.1,3.5,75,0.00,,OVC,0.00,WeatherDisplay:10.37,2013-06-23 02:16:00,
2013-06-22 21:21:00,79.7,71.1,29.84,SSW,202,4.5,5.8,75,0.00,,OVC,0.00,WeatherDisplay:10.37,2013-06-23 02:21:00,
2013-06-22 21:26:00,79.9,71.2,29.84,SSW,202,4.7,4.7,75,0.00,,OVC,0.00,WeatherDisplay:10.37,2013-06-23 02:26:00,
2013-06-22 21:31:00,80.2,71.6,29.84,SSW,202,4.7,5.8,75,0.00,,OVC,0.00,WeatherDisplay:10.37,2013-06-23 02:31:00,
2013-06-22 21:36:00,80.2,71.6,29.84,SE,135,5.4,5.8,75,0.00,,OVC,0.00,WeatherDisplay:10.37,2013-06-23 02:36:00,
2013-06-22 21:41:00,80.2,71.6,29.85,South,180,6.2,6.9,75,0.00,,OVC,0.00,WeatherDisplay:10.37,2013-06-23 02:41:00,
2013-06-22 21:46:00,80.2,71.6,29.85,South,180,5.6,5.8,75,0.00,,OVC,0.00,WeatherDisplay:10.37,2013-06-23 02:46:00,
2013-06-22 21:51:00,80.2,71.6,29.85,South,180,5.6,8.1,75,0.00,,OVC,0.00,WeatherDisplay:10.37,2013-06-23 02:51:00,
2013-06-22 21:56:00,80.2,71.6,29.85,SE,135,5.9,9.2,75,0.00,,OVC,0.00,WeatherDisplay:10.37,2013-06-23 02:56:00,
2013-06-22 22:01:00,80.1,71.4,29.85,SSW,202,5.6,6.9,75,0.00,,OVC,0.00,WeatherDisplay:10.37,2013-06-23 03:01:00,
2013-06-22 22:06:00,80.1,71.4,29.86,SSW,202,3.3,5.8,75,0.00,,OVC,0.00,WeatherDisplay:10.37,2013-06-23 03:06:00,
2013-06-22 22:11:00,80.1,71.4,29.86,SSW,202,3.8,3.8,75,0.00,,OVC,0.00,WeatherDisplay:10.37,2013-06-23 03:11:00,
2013-06-22 22:16:00,80.1,71.4,29.86,SSE,158,4.7,5.8,75,0.00,,OVC,0.00,WeatherDisplay:10.37,2013-06-23 03:16:00,
2013-06-22 22:21:00,79.9,71.2,29.86,SSW,202,5.6,5.8,75,0.00,,OVC,0.00,WeatherDisplay:10.37,2013-06-23 03:21:00,
2013-06-22 22:26:00,79.7,71.1,29.86,SSW,202,3.3,4.6,75,0.00,,OVC,0.00,WeatherDisplay:10.37,2013-06-23 03:26:00,
2013-06-22 22:31:00,79.9,71.2,29.87,SSW,202,4.7,4.7,75,0.00,,OVC,0.00,WeatherDisplay:10.37,2013-06-23 03:31:00,
2013-06-22 22:36:00,79.9,71.2,29.87,SSE,158,5.9,6.9,75,0.00,,OVC,0.00,WeatherDisplay:10.37,2013-06-23 03:36:00,
2013-06-22 22:41:00,79.9,71.2,29.87,South,180,6.9,6.9,75,0.00,,OVC,0.00,WeatherDisplay:10.37,2013-06-23 03:41:00,
2013-06-22 22:47:00,79.7,71.1,29.88,SW,225,6.2,6.2,75,0.00,,OVC,0.00,WeatherDisplay:10.37,2013-06-23 03:47:00,
2013-06-22 22:52:00,79.5,70.9,29.88,SSE,158,5.9,5.9,75,0.00,,OVC,0.00,WeatherDisplay:10.37,2013-06-23 03:52:00,
2013-06-22 22:57:00,79.3,70.7,29.88,SSE,158,4.5,5.8,75,0.00,,OVC,0.00,WeatherDisplay:10.37,2013-06-23 03:57:00,
2013-06-22 23:01:00,79.3,70.7,29.88,SSW,202,6.9,6.9,75,0.00,,OVC,0.00,WeatherDisplay:10.37,2013-06-23 04:01:00,
2013-06-22 23:02:00,79.3,70.7,29.88,SSW,202,4.7,6.9,75,0.00,,OVC,0.00,WeatherDisplay:10.37,2013-06-23 04:02:00,
2013-06-22 23:07:00,79.5,70.9,29.89,South,180,4.3,8.1,75,0.00,,OVC,0.00,WeatherDisplay:10.37,2013-06-23 04:07:00,
2013-06-22 23:12:00,79.5,70.9,29.89,SSW,202,7.8,8.1,75,0.00,,OVC,0.00,WeatherDisplay:10.37,2013-06-23 04:12:00,
2013-06-22 23:17:00,79.5,70.9,29.89,SSE,158,6.9,8.1,75,0.00,,OVC,0.00,WeatherDisplay:10.37,2013-06-23 04:17:00,
2013-06-22 23:22:00,79.5,70.9,29.89,SSE,158,9.0,10.4,75,0.00,,OVC,0.00,WeatherDisplay:10.37,2013-06-23 04:22:00,
2013-06-22 23:27:00,79.3,70.7,29.89,SE,135,4.7,5.8,75,0.00,,OVC,0.00,WeatherDisplay:10.37,2013-06-23 04:27:00,
2013-06-22 23:32:00,79.2,70.5,29.90,ENE,68,5.2,5.2,75,0.00,,OVC,0.00,WeatherDisplay:10.37,2013-06-23 04:32:00,
2013-06-22 23:37:00,77.0,66.9,29.90,ENE,68,3.6,3.6,71,0.00,,OVC,0.00,WeatherDisplay:10.37,2013-06-23 04:37:00,
2013-06-22 23:42:00,75.4,66.1,29.90,NE,45,7.6,9.2,73,0.00,,OVC,0.00,WeatherDisplay:10.37,2013-06-23 04:42:00,
2013-06-22 23:47:00,74.3,65.9,29.90,ENE,68,12.8,12.8,75,0.00,,OVC,0.00,WeatherDisplay:10.37,2013-06-23 04:47:00,
2013-06-22 23:52:00,73.9,65.5,29.89,ENE,68,8.3,9.2,75,0.00,,OVC,0.00,WeatherDisplay:10.37,2013-06-23 04:52:00,
2013-06-22 23:57:00,73.9,65.5,29.89,NNE,22,9.2,9.2,75,0.00,,OVC,0.00,WeatherDisplay:10.37,2013-06-23 04:57:00,